Europa — C6QK8 — position and weather

sailwx.info

Track history (hours):
 
Tides and Currents Weather Stations Pressure Air Temp Water Temp Dewpoint Dewpoint Depression Visibility Wind Speed Wind Dir Waves Ship Positions

Europa

Operator: Hapag-Lloyd Container Line

Last reported at 2019-Mar-05 11:49 UTC. Time now 2019-Mar-22 12:26 UTC.
Position S 26°34' E 153°15'.
Warning: this ship's position is 17 days out of date.

Length 199 m; draft 6.2 m.

Type: Passenger vessel. MMSI: 308007000.

Date/timePositionNaut miles runAvg speedWind from/ knotsBaromVisibWave heightAir tempDewpointWater temp
2019-Mar-05 11:49S 26°34' E 153°15'516.7
2019-Mar-05 11:30S 26°39' E 153°14'610.9
2019-Mar-05 10:59S 26°44' E 153°11'715.1
2019-Mar-05 10:30S 26°51' E 153°09'816.0
2019-Mar-05 10:00S 26°58' E 153°13'815.1
2019-Mar-05 09:30S 27°04' E 153°18'612.9
2019-Mar-05 09:00S 27°11' E 153°19'815.9
2019-Mar-05 08:30S 27°17' E 153°14'713.4
2019-Mar-05 08:00S 27°23' E 153°10'4 7.1
2019-Mar-05 07:31S 27°26' E 153°07'3 5.7
2019-Mar-05 07:00S 27°26' E 153°04'0 0.0
2019-Mar-05 06:28S 27°26' E 153°04'0 0.0
2019-Mar-05 05:58S 27°26' E 153°04'0 0.0
2019-Mar-05 05:28S 27°26' E 153°04'0 0.0
2019-Mar-05 04:58S 27°26' E 153°04'0 0.0
2019-Mar-05 04:28S 27°26' E 153°04'0 0.0
2019-Mar-05 03:58S 27°26' E 153°04'0 0.0
2019-Mar-05 03:28S 27°26' E 153°04'0 0.0
2019-Mar-05 02:58S 27°26' E 153°04'0 0.0
2019-Mar-05 02:28S 27°26' E 153°04'0 0.0
2019-Mar-05 01:58S 27°26' E 153°04'0 0.0
2019-Mar-05 01:28S 27°26' E 153°04'0 0.0
2019-Mar-05 00:58S 27°26' E 153°04'0 0.0
2019-Mar-05 00:28S 27°26' E 153°04'0 0.0
2019-Mar-04 23:58S 27°26' E 153°04'0 0.0
2019-Mar-04 23:28S 27°26' E 153°04'0 0.0
2019-Mar-04 22:58S 27°26' E 153°04'0 0.0
2019-Mar-04 22:28S 27°26' E 153°04'0 0.0
2019-Mar-04 21:58S 27°26' E 153°04'0 0.6
2019-Mar-04 21:31S 27°27' E 153°04'3 5.6
2019-Mar-04 21:00S 27°26' E 153°07'3 6.6
2019-Mar-04 20:30S 27°23' E 153°09'511.0
2019-Mar-04 20:01S 27°18' E 153°13'714.3
2019-Mar-04 19:31S 27°15' E 153°19'714.4
2019-Mar-04 19:00S 27°07' E 153°21'714.7
2019-Mar-04 18:31S 27°02' E 153°15'816.7
2019-Mar-04 18:00S 26°54' E 153°11'611.1
2019-Mar-04 17:31S 26°49' E 153°11'611.7
2019-Mar-04 17:00S 26°43' E 153°12'815.9
2019-Mar-04 16:30S 26°48' E 153°19'917.1
2019-Mar-04 16:00S 26°53' E 153°27'816.2
2019-Mar-04 15:30S 26°58' E 153°34'816.5
2019-Mar-04 15:00S 27°06' E 153°35'816.3
2019-Mar-04 14:30S 27°14' E 153°37'816.4
2019-Mar-04 14:00S 27°23' E 153°38'816.0
2019-Mar-04 13:30S 27°30' E 153°40'815.3
2019-Mar-04 13:00S 27°38' E 153°41'715.0
2019-Mar-04 12:30S 27°45' E 153°41'815.5
2019-Mar-04 12:00S 27°53' E 153°42'816.0
2019-Mar-04 11:30S 28°01' E 153°43'816.2
2019-Mar-04 11:00S 28°09' E 153°44'25514.6
2019-Mar-03 17:36S 32°20' E 152°53'113.4
2019-Mar-03 17:30S 32°21' E 152°52'713.3
2019-Mar-03 17:00S 32°26' E 152°47'713.2
2019-Mar-03 16:30S 32°31' E 152°42'612.9
2019-Mar-03 16:01S 32°36' E 152°38'612.6
2019-Mar-03 15:31S 32°41' E 152°33'612.1
2019-Mar-03 15:01S 32°46' E 152°28'611.7
2019-Mar-03 14:31S 32°50' E 152°24'611.4
2019-Mar-03 14:01S 32°55' E 152°19'611.0
2019-Mar-03 13:30S 32°59' E 152°15'510.7
2019-Mar-03 13:00S 33°03' E 152°11'510.7
2019-Mar-03 12:31S 33°08' E 152°07'510.9
2019-Mar-03 12:01S 33°12' E 152°03'611.1
2019-Mar-03 11:30S 33°16' E 151°59'711.5
2019-Mar-03 10:53S 33°21' E 151°53'512.4
2019-Mar-03 10:28S 33°25' E 151°49'612.9
2019-Mar-03 10:00S 33°30' E 151°45'612.6
2019-Mar-03 09:31S 33°35' E 151°40'612.5
2019-Mar-03 09:01S 33°39' E 151°35'612.5
2019-Mar-03 08:31S 33°44' E 151°30'612.5
2019-Mar-03 08:01S 33°49' E 151°26'611.8
2019-Mar-03 07:30S 33°51' E 151°19'5 8.3
2019-Mar-03 06:57S 33°51' E 151°13'1 0.1
2019-Mar-02 22:40S 33°52' E 151°13'0 0.0
2019-Mar-02 22:28S 33°52' E 151°13'0 0.0
2019-Mar-02 21:46S 33°52' E 151°13'0 0.0
2019-Mar-02 21:28S 33°52' E 151°13'0 0.0
2019-Mar-02 20:58S 33°52' E 151°13'0 0.0
2019-Mar-02 20:28S 33°52' E 151°13'0 0.0
2019-Mar-02 19:58S 33°52' E 151°13'0 0.0
2019-Mar-02 19:28S 33°52' E 151°13'0 0.0
2019-Mar-02 18:58S 33°52' E 151°13'0 0.0
2019-Mar-02 18:28S 33°52' E 151°13'0 0.0
2019-Mar-02 17:58S 33°52' E 151°13'0 0.0
2019-Mar-02 17:28S 33°52' E 151°13'0 0.0
2019-Mar-02 16:58S 33°52' E 151°13'0 0.0
2019-Mar-02 16:28S 33°52' E 151°13'0 0.0
2019-Mar-02 15:58S 33°52' E 151°13'0 0.0
2019-Mar-02 15:28S 33°52' E 151°13'0 0.0
2019-Mar-02 14:58S 33°52' E 151°13'0 0.0
2019-Mar-02 14:28S 33°52' E 151°13'0 0.0
2019-Mar-02 13:58S 33°52' E 151°13'0 0.0
2019-Mar-02 13:28S 33°52' E 151°13'0 0.0
2019-Mar-02 12:58S 33°52' E 151°13'0 0.0
2019-Mar-02 12:28S 33°52' E 151°13'0 0.0
2019-Mar-02 11:58S 33°52' E 151°13'0 0.0
2019-Mar-02 11:28S 33°52' E 151°13'0 0.0
2019-Mar-02 10:58S 33°52' E 151°13'0 0.0
2019-Mar-02 10:28S 33°52' E 151°13'0 0.0
2019-Mar-02 09:58S 33°52' E 151°13'0 0.0
2019-Mar-02 09:28S 33°52' E 151°13'0 0.0
2019-Mar-02 08:58S 33°52' E 151°13'0 0.0
2019-Mar-02 08:28S 33°52' E 151°13'0 0.0
2019-Mar-02 07:58S 33°52' E 151°13'0 0.0
2019-Mar-02 07:28S 33°52' E 151°13'0 0.0
2019-Mar-02 06:58S 33°52' E 151°13'0 0.0
2019-Mar-02 06:22S 33°52' E 151°13'0 0.0
2019-Mar-02 05:58S 33°52' E 151°13'0 0.0
2019-Mar-02 05:28S 33°52' E 151°13'0 0.0
2019-Mar-02 03:58S 33°51' E 151°13'0 0.0
2019-Mar-01 21:06S 33°52' E 151°13'0 0.1
2019-Mar-01 21:00S 33°52' E 151°13'2 4.1
2019-Mar-01 20:30S 33°51' E 151°15'510.4
2019-Mar-01 20:00S 33°52' E 151°21'510.5
2019-Mar-01 19:30S 33°57' E 151°23'816.2
2019-Mar-01 19:01S 34°05' E 151°20'816.7
2019-Mar-01 18:30S 34°13' E 151°17'22915.4
2019-Mar-01 03:40S 37°49' E 149°44'515.6
2019-Mar-01 03:20S 37°52' E 149°39'1216.2
2019-Mar-01 02:35S 38°00' E 149°27'315.1
2019-Mar-01 02:23S 38°02' E 149°24'816.4
2019-Mar-01 01:55S 38°07' E 149°17'1916.6
2019-Mar-01 00:48S 38°19' E 148°59'916.9
2019-Mar-01 00:18S 38°24' E 148°51'716.4
2019-Feb-28 23:50S 38°29' E 148°43'613.8
2019-Feb-28 23:23S 38°33' E 148°37'717.9
2019-Feb-28 23:00S 38°38' E 148°30'917.5
2019-Feb-28 22:30S 38°43' E 148°22'816.7
2019-Feb-28 22:00S 38°48' E 148°13'916.5
2019-Feb-28 21:29S 38°51' E 148°03'916.2
2019-Feb-28 20:56S 38°54' E 147°52'815.9
2019-Feb-28 20:26S 38°57' E 147°42'916.0
2019-Feb-28 19:50S 38°59' E 147°31'815.8
2019-Feb-28 19:20S 39°01' E 147°21'134 5.2
2019-Feb-27 17:45S 37°51' E 144°56'113 3.6
2019-Feb-26 10:37S 39°27' E 146°13'213.3
2019-Feb-26 10:27S 39°28' E 146°15'613.2
2019-Feb-26 10:00S 39°32' E 146°21'713.3
2019-Feb-26 09:30S 39°36' E 146°28'713.3
2019-Feb-26 08:59S 39°40' E 146°35'713.2
2019-Feb-26 08:25S 39°45' E 146°42'813.3
2019-Feb-26 07:51S 39°50' E 146°50'513.3
2019-Feb-26 07:27S 39°53' E 146°55'613.3
2019-Feb-26 06:58S 39°57' E 147°01'613.3
2019-Feb-26 06:30S 40°01' E 147°08'713.1
2019-Feb-26 06:00S 40°05' E 147°14'713.1
2019-Feb-26 05:30S 40°10' E 147°21'612.7
2019-Feb-26 05:00S 40°14' E 147°27'613.0
2019-Feb-26 04:30S 40°18' E 147°34'612.8
2019-Feb-26 04:00S 40°22' E 147°40'713.0
2019-Feb-26 03:30S 40°26' E 147°47'612.8
2019-Feb-26 03:00S 40°30' E 147°53'713.7
2019-Feb-26 02:30S 40°35' E 148°00'16215.1
2019-Feb-25 15:43S 43°17' E 148°00'417.1
2019-Feb-25 15:30S 43°17' E 147°55'916.2
2019-Feb-25 14:56S 43°16' E 147°43'716.9
2019-Feb-25 14:30S 43°11' E 147°35'1516.4
2019-Feb-25 13:35S 42°60' E 147°22'0 0.0
2019-Feb-24 10:38S 42°60' E 147°22'610.8
2019-Feb-24 10:03S 43°06' E 147°26'112.1
2019-Feb-24 09:55S 43°07' E 147°28'512.7
2019-Feb-24 09:30S 43°10' E 147°33'611.5
2019-Feb-24 09:00S 43°14' E 147°39'711.8
2019-Feb-24 08:25S 43°18' E 147°46'1117.3
2019-Feb-24 07:47S 43°20' E 148°01'817.1
2019-Feb-24 07:18S 43°22' E 148°13'516.6
2019-Feb-24 07:00S 43°23' E 148°19'  
Track history (hours):
 
Tides and Currents Weather Stations Pressure Air Temp Water Temp Dewpoint Dewpoint Depression Visibility Wind Speed Wind Dir Waves Ship Positions

Europa

Operator: Hapag-Lloyd Container Line

Last reported at 2019-Mar-05 11:49 UTC. Time now 2019-Mar-22 12:26 UTC.
Position S 26°34' E 153°15'.
Warning: this ship's position is 17 days out of date.

Length 199 m; draft 6.2 m.

Type: Passenger vessel. MMSI: 308007000.

Date/timePositionNaut miles runAvg speedWind from/ knotsBaromVisibWave heightAir tempDewpointWater temp
2019-Mar-05 11:49S 26°34' E 153°15'516.7
2019-Mar-05 11:30S 26°39' E 153°14'610.9
2019-Mar-05 10:59S 26°44' E 153°11'715.1
2019-Mar-05 10:30S 26°51' E 153°09'816.0
2019-Mar-05 10:00S 26°58' E 153°13'815.1
2019-Mar-05 09:30S 27°04' E 153°18'612.9
2019-Mar-05 09:00S 27°11' E 153°19'815.9
2019-Mar-05 08:30S 27°17' E 153°14'713.4
2019-Mar-05 08:00S 27°23' E 153°10'4 7.1
2019-Mar-05 07:31S 27°26' E 153°07'3 5.7
2019-Mar-05 07:00S 27°26' E 153°04'0 0.0
2019-Mar-05 06:28S 27°26' E 153°04'0 0.0
2019-Mar-05 05:58S 27°26' E 153°04'0 0.0
2019-Mar-05 05:28S 27°26' E 153°04'0 0.0
2019-Mar-05 04:58S 27°26' E 153°04'0 0.0
2019-Mar-05 04:28S 27°26' E 153°04'0 0.0
2019-Mar-05 03:58S 27°26' E 153°04'0 0.0
2019-Mar-05 03:28S 27°26' E 153°04'0 0.0
2019-Mar-05 02:58S 27°26' E 153°04'0 0.0
2019-Mar-05 02:28S 27°26' E 153°04'0 0.0
2019-Mar-05 01:58S 27°26' E 153°04'0 0.0
2019-Mar-05 01:28S 27°26' E 153°04'0 0.0
2019-Mar-05 00:58S 27°26' E 153°04'0 0.0
2019-Mar-05 00:28S 27°26' E 153°04'0 0.0
2019-Mar-04 23:58S 27°26' E 153°04'0 0.0
2019-Mar-04 23:28S 27°26' E 153°04'0 0.0
2019-Mar-04 22:58S 27°26' E 153°04'0 0.0
2019-Mar-04 22:28S 27°26' E 153°04'0 0.0
2019-Mar-04 21:58S 27°26' E 153°04'0 0.6
2019-Mar-04 21:31S 27°27' E 153°04'3 5.6
2019-Mar-04 21:00S 27°26' E 153°07'3 6.6
2019-Mar-04 20:30S 27°23' E 153°09'511.0
2019-Mar-04 20:01S 27°18' E 153°13'714.3
2019-Mar-04 19:31S 27°15' E 153°19'714.4
2019-Mar-04 19:00S 27°07' E 153°21'714.7
2019-Mar-04 18:31S 27°02' E 153°15'816.7
2019-Mar-04 18:00S 26°54' E 153°11'611.1
2019-Mar-04 17:31S 26°49' E 153°11'611.7
2019-Mar-04 17:00S 26°43' E 153°12'815.9
2019-Mar-04 16:30S 26°48' E 153°19'917.1
2019-Mar-04 16:00S 26°53' E 153°27'816.2
2019-Mar-04 15:30S 26°58' E 153°34'816.5
2019-Mar-04 15:00S 27°06' E 153°35'816.3
2019-Mar-04 14:30S 27°14' E 153°37'816.4
2019-Mar-04 14:00S 27°23' E 153°38'816.0
2019-Mar-04 13:30S 27°30' E 153°40'815.3
2019-Mar-04 13:00S 27°38' E 153°41'715.0
2019-Mar-04 12:30S 27°45' E 153°41'815.5
2019-Mar-04 12:00S 27°53' E 153°42'816.0
2019-Mar-04 11:30S 28°01' E 153°43'816.2
2019-Mar-04 11:00S 28°09' E 153°44'25514.6
2019-Mar-03 17:36S 32°20' E 152°53'113.4
2019-Mar-03 17:30S 32°21' E 152°52'713.3
2019-Mar-03 17:00S 32°26' E 152°47'713.2
2019-Mar-03 16:30S 32°31' E 152°42'612.9
2019-Mar-03 16:01S 32°36' E 152°38'612.6
2019-Mar-03 15:31S 32°41' E 152°33'612.1
2019-Mar-03 15:01S 32°46' E 152°28'611.7
2019-Mar-03 14:31S 32°50' E 152°24'611.4
2019-Mar-03 14:01S 32°55' E 152°19'611.0
2019-Mar-03 13:30S 32°59' E 152°15'510.7
2019-Mar-03 13:00S 33°03' E 152°11'510.7
2019-Mar-03 12:31S 33°08' E 152°07'510.9
2019-Mar-03 12:01S 33°12' E 152°03'611.1
2019-Mar-03 11:30S 33°16' E 151°59'711.5
2019-Mar-03 10:53S 33°21' E 151°53'512.4
2019-Mar-03 10:28S 33°25' E 151°49'612.9
2019-Mar-03 10:00S 33°30' E 151°45'612.6
2019-Mar-03 09:31S 33°35' E 151°40'612.5
2019-Mar-03 09:01S 33°39' E 151°35'612.5
2019-Mar-03 08:31S 33°44' E 151°30'612.5
2019-Mar-03 08:01S 33°49' E 151°26'611.8
2019-Mar-03 07:30S 33°51' E 151°19'5 8.3
2019-Mar-03 06:57S 33°51' E 151°13'1 0.1
2019-Mar-02 22:40S 33°52' E 151°13'0 0.0
2019-Mar-02 22:28S 33°52' E 151°13'0 0.0
2019-Mar-02 21:46S 33°52' E 151°13'0 0.0
2019-Mar-02 21:28S 33°52' E 151°13'0 0.0
2019-Mar-02 20:58S 33°52' E 151°13'0 0.0
2019-Mar-02 20:28S 33°52' E 151°13'0 0.0
2019-Mar-02 19:58S 33°52' E 151°13'0 0.0
2019-Mar-02 19:28S 33°52' E 151°13'0 0.0
2019-Mar-02 18:58S 33°52' E 151°13'0 0.0
2019-Mar-02 18:28S 33°52' E 151°13'0 0.0
2019-Mar-02 17:58S 33°52' E 151°13'0 0.0
2019-Mar-02 17:28S 33°52' E 151°13'0 0.0
2019-Mar-02 16:58S 33°52' E 151°13'0 0.0
2019-Mar-02 16:28S 33°52' E 151°13'0 0.0
2019-Mar-02 15:58S 33°52' E 151°13'0 0.0
2019-Mar-02 15:28S 33°52' E 151°13'0 0.0
2019-Mar-02 14:58S 33°52' E 151°13'0 0.0
2019-Mar-02 14:28S 33°52' E 151°13'0 0.0
2019-Mar-02 13:58S 33°52' E 151°13'0 0.0
2019-Mar-02 13:28S 33°52' E 151°13'0 0.0
2019-Mar-02 12:58S 33°52' E 151°13'0 0.0
2019-Mar-02 12:28S 33°52' E 151°13'0 0.0
2019-Mar-02 11:58S 33°52' E 151°13'0 0.0
2019-Mar-02 11:28S 33°52' E 151°13'0 0.0
2019-Mar-02 10:58S 33°52' E 151°13'0 0.0
2019-Mar-02 10:28S 33°52' E 151°13'0 0.0
2019-Mar-02 09:58S 33°52' E 151°13'0 0.0
2019-Mar-02 09:28S 33°52' E 151°13'0 0.0
2019-Mar-02 08:58S 33°52' E 151°13'0 0.0
2019-Mar-02 08:28S 33°52' E 151°13'0 0.0
2019-Mar-02 07:58S 33°52' E 151°13'0 0.0
2019-Mar-02 07:28S 33°52' E 151°13'0 0.0
2019-Mar-02 06:58S 33°52' E 151°13'0 0.0
2019-Mar-02 06:22S 33°52' E 151°13'0 0.0
2019-Mar-02 05:58S 33°52' E 151°13'0 0.0
2019-Mar-02 05:28S 33°52' E 151°13'0 0.0
2019-Mar-02 03:58S 33°51' E 151°13'0 0.0
2019-Mar-01 21:06S 33°52' E 151°13'0 0.1
2019-Mar-01 21:00S 33°52' E 151°13'2 4.1
2019-Mar-01 20:30S 33°51' E 151°15'510.4
2019-Mar-01 20:00S 33°52' E 151°21'510.5
2019-Mar-01 19:30S 33°57' E 151°23'816.2
2019-Mar-01 19:01S 34°05' E 151°20'816.7
2019-Mar-01 18:30S 34°13' E 151°17'22915.4
2019-Mar-01 03:40S 37°49' E 149°44'515.6
2019-Mar-01 03:20S 37°52' E 149°39'1216.2
2019-Mar-01 02:35S 38°00' E 149°27'315.1
2019-Mar-01 02:23S 38°02' E 149°24'816.4
2019-Mar-01 01:55S 38°07' E 149°17'1916.6
2019-Mar-01 00:48S 38°19' E 148°59'916.9
2019-Mar-01 00:18S 38°24' E 148°51'716.4
2019-Feb-28 23:50S 38°29' E 148°43'613.8
2019-Feb-28 23:23S 38°33' E 148°37'717.9
2019-Feb-28 23:00S 38°38' E 148°30'917.5
2019-Feb-28 22:30S 38°43' E 148°22'816.7
2019-Feb-28 22:00S 38°48' E 148°13'916.5
2019-Feb-28 21:29S 38°51' E 148°03'916.2
2019-Feb-28 20:56S 38°54' E 147°52'815.9
2019-Feb-28 20:26S 38°57' E 147°42'916.0
2019-Feb-28 19:50S 38°59' E 147°31'815.8
2019-Feb-28 19:20S 39°01' E 147°21'134 5.2
2019-Feb-27 17:45S 37°51' E 144°56'113 3.6
2019-Feb-26 10:37S 39°27' E 146°13'213.3
2019-Feb-26 10:27S 39°28' E 146°15'613.2
2019-Feb-26 10:00S 39°32' E 146°21'713.3
2019-Feb-26 09:30S 39°36' E 146°28'713.3
2019-Feb-26 08:59S 39°40' E 146°35'713.2
2019-Feb-26 08:25S 39°45' E 146°42'813.3
2019-Feb-26 07:51S 39°50' E 146°50'513.3
2019-Feb-26 07:27S 39°53' E 146°55'613.3
2019-Feb-26 06:58S 39°57' E 147°01'613.3
2019-Feb-26 06:30S 40°01' E 147°08'713.1
2019-Feb-26 06:00S 40°05' E 147°14'713.1
2019-Feb-26 05:30S 40°10' E 147°21'612.7
2019-Feb-26 05:00S 40°14' E 147°27'613.0
2019-Feb-26 04:30S 40°18' E 147°34'612.8
2019-Feb-26 04:00S 40°22' E 147°40'713.0
2019-Feb-26 03:30S 40°26' E 147°47'612.8
2019-Feb-26 03:00S 40°30' E 147°53'713.7
2019-Feb-26 02:30S 40°35' E 148°00'16215.1
2019-Feb-25 15:43S 43°17' E 148°00'417.1
2019-Feb-25 15:30S 43°17' E 147°55'916.2
2019-Feb-25 14:56S 43°16' E 147°43'716.9
2019-Feb-25 14:30S 43°11' E 147°35'1516.4
2019-Feb-25 13:35S 42°60' E 147°22'0 0.0
2019-Feb-24 10:38S 42°60' E 147°22'610.8
2019-Feb-24 10:03S 43°06' E 147°26'112.1
2019-Feb-24 09:55S 43°07' E 147°28'512.7
2019-Feb-24 09:30S 43°10' E 147°33'611.5
2019-Feb-24 09:00S 43°14' E 147°39'711.8
2019-Feb-24 08:25S 43°18' E 147°46'1117.3
2019-Feb-24 07:47S 43°20' E 148°01'817.1
2019-Feb-24 07:18S 43°22' E 148°13'516.6
2019-Feb-24 07:00S 43°23' E 148°19'  

Dump ship's entire track history